createdAt,value
2022-11-06T00:01:46.734Z,1.26
2022-11-06T00:04:13.754Z,1.29
2022-11-06T00:06:50.286Z,1.36
2022-11-06T00:09:21.281Z,1.31
2022-11-06T00:11:50.277Z,1.41
2022-11-06T00:14:18.484Z,1.39
2022-11-06T00:16:46.811Z,1.31
2022-11-06T00:19:14.438Z,1.20
2022-11-06T00:21:41.647Z,1.03
2022-11-06T00:24:09.639Z,1.23
2022-11-06T00:26:36.965Z,1.32
2022-11-06T00:29:04.865Z,1.18
2022-11-06T00:31:35.559Z,1.17
2022-11-06T00:34:03.263Z,1.27
2022-11-06T00:36:31.027Z,1.29
2022-11-06T00:38:58.992Z,1.23
2022-11-06T00:41:27.071Z,1.15
2022-11-06T00:43:59.221Z,1.24
2022-11-06T00:46:27.396Z,1.22
2022-11-06T00:48:55.140Z,1.20
2022-11-06T00:51:26.394Z,1.28
2022-11-06T00:54:00.565Z,1.14
2022-11-06T00:56:27.631Z,0.99
2022-11-06T00:58:55.337Z,1.03
2022-11-06T01:01:25.349Z,1.15
2022-11-06T01:03:55.205Z,1.15
2022-11-06T01:06:24.234Z,1.13
2022-11-06T01:08:52.018Z,1.07
2022-11-06T01:11:22.569Z,1.21
2022-11-06T01:13:51.572Z,1.21
2022-11-06T01:16:19.173Z,1.17
2022-11-06T01:18:46.472Z,1.17
2022-11-06T01:21:27.216Z,1.30
2022-11-06T01:23:57.084Z,1.18
2022-11-06T01:26:37.605Z,1.10
2022-11-06T01:29:07.366Z,1.16
2022-11-06T01:31:35.346Z,0.89
2022-11-06T01:34:03.140Z,1.04
2022-11-06T01:36:30.587Z,1.10
2022-11-06T01:38:59.690Z,0.96
2022-11-06T01:41:38.144Z,1.06
2022-11-06T01:44:27.117Z,1.17
2022-11-06T01:46:54.959Z,1.03
2022-11-06T01:49:21.894Z,0.87
2022-11-06T01:51:53.257Z,0.85
2022-11-06T01:54:22.509Z,0.78
2022-11-06T01:56:52.282Z,0.96
2022-11-06T01:59:22.592Z,1.10
2022-11-06T02:01:49.914Z,1.12
2022-11-06T02:04:22.873Z,1.20
2022-11-06T02:06:49.854Z,1.10
2022-11-06T02:09:17.850Z,1.03
2022-11-06T02:11:50.681Z,1.15
2022-11-06T02:14:28.718Z,0.90
2022-11-06T02:17:08.826Z,1.06
2022-11-06T02:19:57.306Z,0.93
2022-11-06T02:22:59.397Z,1.08
2022-11-06T02:25:55.642Z,1.14
2022-11-06T02:28:33.695Z,0.96
2022-11-06T02:31:05.476Z,0.80
2022-11-06T02:33:38.869Z,0.74
2022-11-06T02:36:13.659Z,0.83
2022-11-06T02:38:44.419Z,0.89
2022-11-06T02:41:19.527Z,0.99
2022-11-06T02:43:52.217Z,1.02
2022-11-06T02:46:26.353Z,0.79
2022-11-06T02:49:00.140Z,0.67
2022-11-06T02:51:30.827Z,0.65
2022-11-06T02:54:03.962Z,0.32
2022-11-06T02:56:36.278Z,0.58
2022-11-06T02:59:09.815Z,0.67
2022-11-06T03:01:55.508Z,0.43
2022-11-06T03:04:29.351Z,0.45
2022-11-06T03:07:06.186Z,0.43
2022-11-06T03:09:33.685Z,0.52
2022-11-06T03:12:19.354Z,0.45
2022-11-06T03:14:54.756Z,0.31
2022-11-06T03:17:37.610Z,0.46
2022-11-06T03:20:23.681Z,0.26
2022-11-06T03:23:00.840Z,0.37
2022-11-06T03:25:35.475Z,0.38
2022-11-06T03:28:10.151Z,0.43
2022-11-06T03:30:43.153Z,0.41
2022-11-06T03:33:29.775Z,0.55
2022-11-06T03:36:10.803Z,0.60
2022-11-06T03:38:43.580Z,0.64
2022-11-06T03:41:21.426Z,0.68
2022-11-06T03:43:52.776Z,0.74
2022-11-06T03:46:25.266Z,0.76
2022-11-06T03:49:00.349Z,0.78
2022-11-06T03:51:34.296Z,0.70
2022-11-06T03:54:07.243Z,0.71
2022-11-06T03:56:51.084Z,0.63
2022-11-06T03:59:23.438Z,0.49
2022-11-06T04:01:54.719Z,0.60
2022-11-06T04:04:21.723Z,0.70
2022-11-06T04:07:12.468Z,0.68
2022-11-06T04:10:01.758Z,0.79
2022-11-06T04:12:51.472Z,0.58
2022-11-06T04:15:21.651Z,0.62
2022-11-06T04:17:48.583Z,0.41
2022-11-06T04:20:39.782Z,0.14
2022-11-06T04:23:06.572Z,0.04
2022-11-06T04:26:10.914Z,0.12
2022-11-06T04:28:52.808Z,0.07
2022-11-06T04:31:46.451Z,0.29
2022-11-06T04:34:51.685Z,0.38
2022-11-06T04:37:37.937Z,0.24
2022-11-06T04:40:23.106Z,0.31
2022-11-06T04:43:03.671Z,0.29
2022-11-06T04:45:36.388Z,0.30
2022-11-06T04:48:06.136Z,0.27
2022-11-06T04:50:48.492Z,0.42
2022-11-06T04:53:17.413Z,0.50
2022-11-06T04:55:54.065Z,0.57
2022-11-06T04:58:20.994Z,0.54
2022-11-06T05:00:50.639Z,0.19
2022-11-06T05:03:18.754Z,0.30
2022-11-06T05:05:45.838Z,0.33
2022-11-06T05:08:17.551Z,0.30
2022-11-06T05:10:45.128Z,0.19
2022-11-06T05:13:13.011Z,0.26
2022-11-06T05:15:40.015Z,0.23
2022-11-06T05:18:07.042Z,0.32
2022-11-06T05:20:34.319Z,0.08
2022-11-06T05:23:01.324Z,0.17
2022-11-06T05:25:30.206Z,0.21
2022-11-06T05:27:57.515Z,0.33
2022-11-06T05:30:25.788Z,0.39
2022-11-06T05:32:53.283Z,0.48
2022-11-06T05:35:21.368Z,0.40
2022-11-06T05:37:48.554Z,0.45
2022-11-06T05:40:15.675Z,0.56
2022-11-06T05:42:44.182Z,0.63
2022-11-06T05:45:12.107Z,0.61
2022-11-06T05:47:42.133Z,0.63
2022-11-06T05:50:10.793Z,0.56
2022-11-06T05:52:38.007Z,0.68
2022-11-06T05:55:11.570Z,0.46
2022-11-06T05:57:41.206Z,0.68
2022-11-06T06:00:09.065Z,0.47
2022-11-06T06:02:40.854Z,0.74
2022-11-06T06:05:08.684Z,0.67
2022-11-06T06:07:35.630Z,0.80
2022-11-06T06:10:02.921Z,0.70
2022-11-06T06:12:30.027Z,0.58
2022-11-06T06:14:57.062Z,0.56
2022-11-06T06:17:24.179Z,0.61
2022-11-06T06:19:51.162Z,0.69
2022-11-06T06:22:18.025Z,0.85
2022-11-06T06:24:44.990Z,0.90
2022-11-06T06:27:12.081Z,0.67
2022-11-06T06:29:39.014Z,0.89
2022-11-06T06:32:06.138Z,0.27
2022-11-06T06:34:33.160Z,0.50
2022-11-06T06:37:00.130Z,0.40
2022-11-06T06:39:27.176Z,0.18
2022-11-06T06:41:54.039Z,0.46
2022-11-06T06:44:20.892Z,0.47
2022-11-06T06:46:47.782Z,0.39
2022-11-06T06:49:14.780Z,0.33
2022-11-06T06:51:41.721Z,0.17
2022-11-06T06:54:08.697Z,0.15
2022-11-06T06:56:35.591Z,0.24
2022-11-06T06:59:02.479Z,0.26
2022-11-06T07:01:29.531Z,0.41
2022-11-06T07:03:59.961Z,0.64
2022-11-06T07:06:30.754Z,0.57
2022-11-06T07:08:57.685Z,0.56
2022-11-06T07:11:24.580Z,0.67
2022-11-06T07:13:51.493Z,0.71
2022-11-06T07:16:18.569Z,0.58
2022-11-06T07:18:45.512Z,0.23
2022-11-06T07:21:13.779Z,0.03
2022-11-06T07:23:41.049Z,0.43
2022-11-06T07:26:08.355Z,0.62
2022-11-06T07:28:35.334Z,0.40
2022-11-06T07:31:04.271Z,0.64
2022-11-06T07:33:31.719Z,0.67
2022-11-06T07:36:10.850Z,0.68
2022-11-06T07:38:39.614Z,0.83
2022-11-06T07:41:13.657Z,0.81
2022-11-06T07:43:41.505Z,0.77
2022-11-06T07:46:10.385Z,0.77
2022-11-06T07:48:37.705Z,0.78
2022-11-06T07:51:07.107Z,0.93
2022-11-06T07:53:34.240Z,0.61
2022-11-06T07:56:01.912Z,0.79
2022-11-06T07:58:29.288Z,0.92
2022-11-06T08:00:58.764Z,0.80
2022-11-06T08:03:26.634Z,0.77
2022-11-06T08:05:53.520Z,1.00
2022-11-06T08:08:20.706Z,1.11
2022-11-06T08:10:47.852Z,0.97
2022-11-06T08:13:17.114Z,1.13
2022-11-06T08:15:44.938Z,0.89
2022-11-06T08:18:13.232Z,1.08
2022-11-06T08:20:41.101Z,1.07
2022-11-06T08:23:10.844Z,1.16
2022-11-06T08:25:38.614Z,1.09
2022-11-06T08:28:05.905Z,0.85
2022-11-06T08:30:33.078Z,0.94
2022-11-06T08:33:02.608Z,0.59
2022-11-06T08:35:30.136Z,0.69
2022-11-06T08:37:57.578Z,0.49
2022-11-06T08:40:29.554Z,0.56
2022-11-06T08:43:02.070Z,0.70
2022-11-06T08:45:29.708Z,0.85
2022-11-06T08:48:01.600Z,0.84
2022-11-06T08:50:29.350Z,0.85
2022-11-06T08:52:57.852Z,0.78
2022-11-06T08:55:24.753Z,0.82
2022-11-06T08:57:54.142Z,0.83
2022-11-06T09:00:21.203Z,0.86
2022-11-06T09:02:48.156Z,1.03
2022-11-06T09:05:15.062Z,0.94
2022-11-06T09:07:41.883Z,0.89
2022-11-06T09:10:09.212Z,1.01
2022-11-06T09:12:36.112Z,1.08
2022-11-06T09:15:03.200Z,0.70
2022-11-06T09:17:30.329Z,0.98
2022-11-06T09:19:57.201Z,0.78
2022-11-06T09:22:24.250Z,1.01
2022-11-06T09:25:03.243Z,0.59
2022-11-06T09:27:30.922Z,0.66
2022-11-06T09:29:58.017Z,0.55
2022-11-06T09:32:25.106Z,0.50
2022-11-06T09:34:51.961Z,0.77
2022-11-06T09:37:18.810Z,0.72
2022-11-06T09:39:45.736Z,0.75
2022-11-06T09:42:42.047Z,0.78
2022-11-06T09:45:17.560Z,1.06
2022-11-06T09:47:52.581Z,0.90
2022-11-06T09:50:24.372Z,0.62
2022-11-06T09:53:03.086Z,0.98
2022-11-06T09:55:41.067Z,0.82
2022-11-06T09:58:16.895Z,1.07
2022-11-06T10:00:44.226Z,1.04
2022-11-06T10:03:11.459Z,1.07
2022-11-06T10:05:41.298Z,0.94
2022-11-06T10:08:24.252Z,0.82
2022-11-06T10:11:23.260Z,0.80
2022-11-06T10:14:08.077Z,0.93
2022-11-06T10:16:55.579Z,1.15
2022-11-06T10:19:46.860Z,1.08
2022-11-06T10:22:18.808Z,1.22
2022-11-06T10:25:08.302Z,1.37
2022-11-06T10:27:46.105Z,1.36
2022-11-06T10:30:15.821Z,1.19
2022-11-06T10:32:51.597Z,1.20
2022-11-06T10:35:38.946Z,1.23
2022-11-06T10:38:21.764Z,1.18
2022-11-06T10:40:49.405Z,1.16
2022-11-06T10:43:27.061Z,1.17
2022-11-06T10:46:19.672Z,1.40
2022-11-06T10:48:52.153Z,1.59
2022-11-06T10:51:49.455Z,1.66
2022-11-06T10:54:35.639Z,1.59
2022-11-06T10:57:15.120Z,1.58
2022-11-06T10:59:42.302Z,1.53
2022-11-06T11:02:28.972Z,1.43
2022-11-06T11:04:58.229Z,1.37
2022-11-06T11:07:31.263Z,1.27
2022-11-06T11:09:58.193Z,0.97
2022-11-06T11:12:30.532Z,0.83
2022-11-06T11:15:11.003Z,0.92
2022-11-06T11:17:38.253Z,1.04
2022-11-06T11:20:32.651Z,1.15
2022-11-06T11:23:07.010Z,1.04
2022-11-06T11:25:34.359Z,1.16
2022-11-06T11:28:04.829Z,0.98
2022-11-06T11:30:32.240Z,1.04
2022-11-06T11:32:59.504Z,0.95
2022-11-06T11:35:31.605Z,0.88
2022-11-06T11:38:14.815Z,0.95
2022-11-06T11:40:42.340Z,1.02
2022-11-06T11:43:26.200Z,0.96
2022-11-06T11:46:08.315Z,1.13
2022-11-06T11:48:43.551Z,0.95
2022-11-06T11:51:35.373Z,1.11
2022-11-06T11:54:14.035Z,1.07
2022-11-06T11:57:04.789Z,1.28
2022-11-06T11:59:46.642Z,1.26
2022-11-06T12:02:27.600Z,1.27
2022-11-06T12:05:06.013Z,1.06
2022-11-06T12:07:46.421Z,1.17
2022-11-06T12:10:28.620Z,1.14
2022-11-06T12:12:57.670Z,1.21
2022-11-06T12:15:54.310Z,1.11
2022-11-06T12:18:26.665Z,1.22
2022-11-06T12:21:08.376Z,1.23
2022-11-06T12:23:49.631Z,1.26
2022-11-06T12:26:41.924Z,1.31
2022-11-06T12:29:19.544Z,1.18
2022-11-06T12:31:55.371Z,1.24
2022-11-06T12:34:48.556Z,1.01
2022-11-06T12:37:21.485Z,1.01
2022-11-06T12:39:57.112Z,0.77
2022-11-06T12:42:28.264Z,0.78
2022-11-06T12:44:55.275Z,0.69
2022-11-06T12:47:49.165Z,0.74
2022-11-06T12:50:29.225Z,0.75
2022-11-06T12:53:20.284Z,0.62
2022-11-06T12:55:55.729Z,0.72
2022-11-06T12:58:25.516Z,0.69
2022-11-06T13:01:08.229Z,0.56
2022-11-06T13:04:03.840Z,0.58
2022-11-06T13:06:39.596Z,0.54
2022-11-06T13:09:22.849Z,0.44
2022-11-06T13:12:03.217Z,0.43
2022-11-06T13:14:40.307Z,0.46
2022-11-06T13:17:21.816Z,0.53
2022-11-06T13:20:00.757Z,0.53
2022-11-06T13:22:31.023Z,0.63
2022-11-06T13:25:20.995Z,0.61
2022-11-06T13:27:50.584Z,0.67
2022-11-06T13:30:19.952Z,0.46
2022-11-06T13:33:07.080Z,0.47
2022-11-06T13:35:39.069Z,0.43
2022-11-06T13:38:15.184Z,0.38
2022-11-06T13:40:45.242Z,0.46
2022-11-06T13:44:00.035Z,0.56
2022-11-06T13:46:36.026Z,0.48
2022-11-06T13:49:28.927Z,0.62
2022-11-06T13:52:05.594Z,0.55
2022-11-06T13:54:50.626Z,0.54
2022-11-06T13:57:56.674Z,0.53
2022-11-06T14:00:42.939Z,0.58
2022-11-06T14:03:25.135Z,0.59
2022-11-06T14:06:15.742Z,0.69
2022-11-06T14:08:50.330Z,0.53
2022-11-06T14:11:21.009Z,0.43
2022-11-06T14:14:03.711Z,0.50
2022-11-06T14:16:37.590Z,0.42
2022-11-06T14:19:06.341Z,0.50
2022-11-06T14:21:48.578Z,0.57
2022-11-06T14:24:36.571Z,0.66
2022-11-06T14:27:12.349Z,0.55
2022-11-06T14:29:39.157Z,0.71
2022-11-06T14:32:12.239Z,0.63
2022-11-06T14:34:41.584Z,0.70
2022-11-06T14:37:30.734Z,0.70
2022-11-06T14:39:58.042Z,0.64
2022-11-06T14:42:31.032Z,0.62
2022-11-06T14:45:19.524Z,0.71
2022-11-06T14:47:46.367Z,0.61
2022-11-06T14:50:19.033Z,0.58
2022-11-06T14:52:52.823Z,0.62
2022-11-06T14:55:29.147Z,0.62
2022-11-06T14:58:13.494Z,0.85
2022-11-06T15:01:00.882Z,0.94
2022-11-06T15:03:42.776Z,0.79
2022-11-06T15:06:18.566Z,0.86
2022-11-06T15:08:45.443Z,0.87
2022-11-06T15:11:30.474Z,0.80
2022-11-06T15:14:04.610Z,0.75
2022-11-06T15:16:40.634Z,0.82
2022-11-06T15:19:15.209Z,0.69
2022-11-06T15:21:49.207Z,0.74
2022-11-06T15:24:22.726Z,0.67
2022-11-06T15:26:54.265Z,0.64
2022-11-06T15:29:31.411Z,0.81
2022-11-06T15:32:04.614Z,0.88
2022-11-06T15:34:38.283Z,0.76
2022-11-06T15:37:19.573Z,0.75
2022-11-06T15:39:59.218Z,0.83
2022-11-06T15:42:34.295Z,1.00
2022-11-06T15:45:15.675Z,1.12
2022-11-06T15:48:02.878Z,0.97
2022-11-06T15:50:35.197Z,0.97
2022-11-06T15:53:14.445Z,0.91
2022-11-06T15:56:00.238Z,0.95
2022-11-06T15:58:33.116Z,0.85
2022-11-06T16:01:01.482Z,0.92
2022-11-06T16:03:32.313Z,0.95
2022-11-06T16:06:03.043Z,1.00
2022-11-06T16:08:32.495Z,0.95
2022-11-06T16:11:01.637Z,1.06
2022-11-06T16:13:28.977Z,1.00
2022-11-06T16:16:02.729Z,1.08
2022-11-06T16:18:35.766Z,1.19
2022-11-06T16:21:13.448Z,1.00
2022-11-06T16:23:46.470Z,0.97
2022-11-06T16:26:36.462Z,0.97
2022-11-06T16:29:11.235Z,0.88
2022-11-06T16:31:39.241Z,1.00
2022-11-06T16:34:18.946Z,1.08
2022-11-06T16:36:57.895Z,0.87
2022-11-06T16:39:35.432Z,1.04
2022-11-06T16:42:16.806Z,0.94
2022-11-06T16:44:46.780Z,0.77
2022-11-06T16:47:17.952Z,0.90
2022-11-06T16:49:58.236Z,0.91
2022-11-06T16:52:30.762Z,0.97
2022-11-06T16:55:17.122Z,0.94
2022-11-06T16:57:46.007Z,0.88
2022-11-06T17:00:31.064Z,0.93
2022-11-06T17:03:18.436Z,0.80
2022-11-06T17:05:59.068Z,0.83
2022-11-06T17:08:36.075Z,0.74
2022-11-06T17:11:21.959Z,0.58
2022-11-06T17:13:50.650Z,0.70
2022-11-06T17:16:23.799Z,0.76
2022-11-06T17:18:51.387Z,0.69
2022-11-06T17:21:22.184Z,0.85
2022-11-06T17:23:50.035Z,1.01
2022-11-06T17:26:22.752Z,0.94
2022-11-06T17:28:49.827Z,0.86
2022-11-06T17:31:18.602Z,0.71
2022-11-06T17:33:46.073Z,0.97
2022-11-06T17:36:39.473Z,0.96
2022-11-06T17:39:07.054Z,1.03
2022-11-06T17:41:34.042Z,1.07
2022-11-06T17:44:02.508Z,1.00
2022-11-06T17:46:32.708Z,1.04
2022-11-06T17:49:00.876Z,1.19
2022-11-06T17:51:47.311Z,1.29
2022-11-06T17:54:14.333Z,1.10
2022-11-06T17:56:41.869Z,1.08
2022-11-06T17:59:09.901Z,0.90
2022-11-06T18:01:37.081Z,1.06
2022-11-06T18:04:04.442Z,1.07
2022-11-06T18:06:31.937Z,1.02
2022-11-06T18:09:00.633Z,1.03
2022-11-06T18:11:28.543Z,1.01
2022-11-06T18:13:55.703Z,1.10
2022-11-06T18:16:28.279Z,1.05
2022-11-06T18:18:56.431Z,1.08
2022-11-06T18:21:23.399Z,1.19
2022-11-06T18:23:50.539Z,1.24
2022-11-06T18:26:18.495Z,1.40
2022-11-06T18:28:45.472Z,1.27
2022-11-06T18:31:12.449Z,1.27
2022-11-06T18:33:39.310Z,1.39
2022-11-06T18:36:08.842Z,1.34
2022-11-06T18:38:36.568Z,1.31
2022-11-06T18:41:10.537Z,1.32
2022-11-06T18:43:37.899Z,1.10
2022-11-06T18:46:12.759Z,1.11
2022-11-06T18:48:40.110Z,1.31
2022-11-06T18:51:23.673Z,1.38
2022-11-06T18:54:02.233Z,1.46
2022-11-06T18:56:29.932Z,1.31
2022-11-06T18:58:56.993Z,1.47
2022-11-06T19:01:24.217Z,1.37
2022-11-06T19:03:51.585Z,1.55
2022-11-06T19:06:20.169Z,1.44
2022-11-06T19:08:49.041Z,1.58
2022-11-06T19:11:17.949Z,1.70
2022-11-06T19:13:48.239Z,1.35
2022-11-06T19:16:16.190Z,1.37
2022-11-06T19:18:43.120Z,1.56
2022-11-06T19:21:11.637Z,1.69
2022-11-06T19:23:40.656Z,1.59
2022-11-06T19:26:29.970Z,1.31
2022-11-06T19:28:58.389Z,1.48
2022-11-06T19:31:29.447Z,1.52
2022-11-06T19:33:57.677Z,1.53
2022-11-06T19:36:25.415Z,1.54
2022-11-06T19:38:53.468Z,1.51
2022-11-06T19:41:20.567Z,1.58
2022-11-06T19:43:47.508Z,1.48
2022-11-06T19:46:18.231Z,1.31
2022-11-06T19:48:47.794Z,1.49
2022-11-06T19:51:16.280Z,1.56
2022-11-06T19:53:43.705Z,1.58
2022-11-06T19:56:17.683Z,1.58
2022-11-06T19:58:44.661Z,1.59
2022-11-06T20:01:13.348Z,1.52
2022-11-06T20:03:41.151Z,1.66
2022-11-06T20:06:08.957Z,1.61
2022-11-06T20:08:38.733Z,1.70
2022-11-06T20:11:07.769Z,1.69
2022-11-06T20:13:36.468Z,1.78
2022-11-06T20:16:18.579Z,1.60
2022-11-06T20:18:52.312Z,1.50
2022-11-06T20:21:21.089Z,1.75
2022-11-06T20:23:48.186Z,1.87
2022-11-06T20:26:15.607Z,1.85
2022-11-06T20:28:42.818Z,1.94
2022-11-06T20:31:11.835Z,1.98
2022-11-06T20:33:39.240Z,1.94
2022-11-06T20:36:33.513Z,1.81
2022-11-06T20:39:01.200Z,2.08
2022-11-06T20:41:29.432Z,2.09
2022-11-06T20:43:56.613Z,1.83
2022-11-06T20:46:24.305Z,2.01
2022-11-06T20:48:51.821Z,2.01
2022-11-06T20:51:22.130Z,1.99
2022-11-06T20:53:49.516Z,2.08
2022-11-06T20:56:20.656Z,2.04
2022-11-06T20:58:48.209Z,1.87
2022-11-06T21:01:19.955Z,1.96
2022-11-06T21:03:49.518Z,1.88
2022-11-06T21:06:17.898Z,1.88
2022-11-06T21:08:45.679Z,1.96
2022-11-06T21:11:16.833Z,1.96
2022-11-06T21:13:46.310Z,1.88
2022-11-06T21:16:16.838Z,1.93
2022-11-06T21:18:44.120Z,1.96
2022-11-06T21:21:14.011Z,2.08
2022-11-06T21:23:42.186Z,2.14
2022-11-06T21:26:10.298Z,2.10
2022-11-06T21:28:38.303Z,2.04
2022-11-06T21:31:09.034Z,2.23
2022-11-06T21:33:38.866Z,2.25
2022-11-06T21:36:11.242Z,2.28
2022-11-06T21:38:38.497Z,2.05
2022-11-06T21:41:07.306Z,1.98
2022-11-06T21:43:35.017Z,2.10
2022-11-06T21:46:07.533Z,1.90
2022-11-06T21:48:50.837Z,2.14
2022-11-06T21:51:21.436Z,2.08
2022-11-06T21:54:07.892Z,1.97
2022-11-06T21:56:37.618Z,1.99
2022-11-06T21:59:06.944Z,2.12
2022-11-06T22:01:34.326Z,2.14
2022-11-06T22:04:01.569Z,2.20
2022-11-06T22:06:29.939Z,2.16
2022-11-06T22:08:59.297Z,2.06
2022-11-06T22:11:35.250Z,2.08
2022-11-06T22:14:04.969Z,2.19
2022-11-06T22:16:35.811Z,2.24
2022-11-06T22:19:03.516Z,2.09
2022-11-06T22:21:31.040Z,2.09
2022-11-06T22:23:58.169Z,2.13
2022-11-06T22:26:29.233Z,2.09
2022-11-06T22:28:58.394Z,2.05
2022-11-06T22:31:25.964Z,1.99
2022-11-06T22:33:54.141Z,2.23
2022-11-06T22:36:22.589Z,2.42
2022-11-06T22:38:50.270Z,2.37
2022-11-06T22:41:19.614Z,2.40
2022-11-06T22:43:46.645Z,2.23
2022-11-06T22:46:22.561Z,2.25
2022-11-06T22:48:51.315Z,2.06
2022-11-06T22:51:20.709Z,2.19
2022-11-06T22:53:47.981Z,2.27
2022-11-06T22:56:14.880Z,2.40
2022-11-06T22:58:42.108Z,2.19
2022-11-06T23:01:10.991Z,2.19
2022-11-06T23:03:38.978Z,2.12
2022-11-06T23:06:09.293Z,2.02
2022-11-06T23:08:41.625Z,2.13
2022-11-06T23:11:13.187Z,2.05
2022-11-06T23:13:40.256Z,1.85
2022-11-06T23:16:13.964Z,1.91
2022-11-06T23:18:41.009Z,2.15
2022-11-06T23:21:19.109Z,2.15
2022-11-06T23:23:46.502Z,2.28
2022-11-06T23:26:18.419Z,2.12
2022-11-06T23:28:46.850Z,2.09
2022-11-06T23:31:15.692Z,2.11
2022-11-06T23:33:43.728Z,2.20
2022-11-06T23:36:13.693Z,2.37
2022-11-06T23:38:41.490Z,2.18
2022-11-06T23:41:32.104Z,2.23
2022-11-06T23:43:59.838Z,2.10
2022-11-06T23:46:28.990Z,2.01
2022-11-06T23:48:56.590Z,2.08
2022-11-06T23:51:24.753Z,2.15
2022-11-06T23:53:52.139Z,2.11
2022-11-06T23:56:19.433Z,2.23
2022-11-06T23:58:46.402Z,2.39
